Time;durP1;ratioP1;P1;durP2;ratioP2;P2;SDS_P1;SDS_P2;PMS_P1;PMS_P2;Temp;Humidity;BMP_temperature;BMP_pressure;BME280_temperature;BME280_humidity;BME280_pressure;Samples;Min_cycle;Max_cycle;Signal;HPM_P1;HPM_P2
2023/10/02 00:00:43;;;;;;;12.48;6.13;;;;;;;22.82;53.91;102092.31;5003342;28;20046;-37
2023/10/02 00:03:10;;;;;;;11.80;6.80;;;;;;;22.81;54.04;102083.34;5000242;28;20463;-36
2023/10/02 00:05:40;;;;;;;12.38;6.35;;;;;;;22.81;53.89;102085.19;5002381;28;20456;-36
2023/10/02 00:08:31;;;;;;;11.60;5.97;;;;;;;22.81;53.75;102090.59;5001317;28;20069;-36
2023/10/02 00:11:05;;;;;;;12.63;6.30;;;;;;;22.82;54.13;102086.88;5000334;28;20421;-36
2023/10/02 00:13:32;;;;;;;12.82;6.93;;;;;;;22.81;54.17;102085.19;4996522;28;20049;-36
2023/10/02 00:15:59;;;;;;;13.20;6.38;;;;;;;22.80;54.10;102094.31;5001242;28;20426;-36
2023/10/02 00:18:27;;;;;;;11.82;6.15;;;;;;;22.80;53.85;102094.31;4998525;28;20136;-36
2023/10/02 00:21:17;;;;;;;11.95;6.30;;;;;;;22.80;53.78;102102.44;5001453;28;20165;-36
2023/10/02 00:23:59;;;;;;;12.05;6.57;;;;;;;22.81;54.08;102096.00;5001549;28;20410;-36
2023/10/02 00:26:26;;;;;;;10.35;6.15;;;;;;;22.79;53.76;102098.00;4998397;28;20046;-36
2023/10/02 00:28:53;;;;;;;11.50;5.55;;;;;;;22.79;54.19;102092.59;5002235;28;20104;-36
2023/10/02 00:31:35;;;;;;;11.10;5.80;;;;;;;22.79;53.76;102095.31;4999740;28;20060;-36
2023/10/02 00:34:03;;;;;;;11.63;6.60;;;;;;;22.79;53.67;102098.84;5007278;28;20057;-36
2023/10/02 00:36:30;;;;;;;11.32;6.47;;;;;;;22.78;53.99;102099.03;5001875;28;20414;-36
2023/10/02 00:39:47;;;;;;;10.23;5.65;;;;;;;22.78;53.89;102096.31;4998120;28;20509;-36
2023/10/02 00:44:54;;;;;;;10.80;6.20;;;;;;;22.78;53.99;102105.28;5000654;28;20129;-36
2023/10/02 00:47:48;;;;;;;10.63;6.07;;;;;;;22.78;54.10;102096.31;4999519;28;20449;-36
2023/10/02 00:50:20;;;;;;;12.43;6.25;;;;;;;22.78;54.06;102101.72;4999857;28;20057;-36
2023/10/02 00:52:47;;;;;;;12.02;6.15;;;;;;;22.77;53.73;102097.31;5001390;28;20053;-38
2023/10/02 00:55:17;;;;;;;11.88;5.90;;;;;;;22.77;53.88;102081.97;5000434;28;20373;-37
2023/10/02 00:57:45;;;;;;;11.35;6.00;;;;;;;22.77;53.69;102087.38;4997333;28;20144;-37
2023/10/02 01:00:30;;;;;;;10.60;5.93;;;;;;;22.77;53.89;102090.06;5002664;28;20050;-37
2023/10/02 01:02:59;;;;;;;11.63;6.25;;;;;;;22.77;53.90;102094.63;4998169;28;20053;-37
2023/10/02 01:05:41;;;;;;;10.32;5.85;;;;;;;22.76;54.03;102088.38;5001510;28;20053;-37
2023/10/02 01:08:23;;;;;;;10.40;5.70;;;;;;;22.76;53.75;102077.56;5001513;28;20053;-37
2023/10/02 01:10:56;;;;;;;12.13;6.30;;;;;;;22.75;54.19;102073.13;5000510;28;20125;-37
2023/10/02 01:13:34;;;;;;;9.07;5.57;;;;;;;22.75;53.73;102069.59;5002272;28;20045;-37
2023/10/02 01:16:09;;;;;;;11.80;5.78;;;;;;;22.73;53.96;102075.16;5004606;28;20056;-37
2023/10/02 01:18:38;;;;;;;10.68;5.65;;;;;;;22.73;54.16;102077.88;5001149;28;20141;-37
2023/10/02 01:21:11;;;;;;;9.73;5.70;;;;;;;22.73;53.67;102068.91;4998197;28;20049;-37
2023/10/02 01:24:06;;;;;;;13.23;6.03;;;;;;;22.72;53.91;102073.47;4998326;28;21202;-37
2023/10/02 01:26:38;;;;;;;9.98;5.53;;;;;;;22.73;53.83;102071.63;5003040;28;20081;-37
2023/10/02 01:29:06;;;;;;;11.18;5.70;;;;;;;22.71;53.98;102076.31;5001746;28;20400;-37
2023/10/02 01:31:44;;;;;;;10.73;6.20;;;;;;;22.70;54.23;102072.75;4998569;28;20050;-37
2023/10/02 01:34:33;;;;;;;9.63;5.50;;;;;;;22.69;53.87;102071.06;4998341;28;20137;-37
2023/10/02 01:37:32;;;;;;;9.95;5.10;;;;;;;22.69;53.66;102070.22;5000691;28;20058;-37
2023/10/02 01:40:28;;;;;;;10.88;6.05;;;;;;;22.67;54.10;102071.25;5000156;28;20073;-37
2023/10/02 01:42:41;;;;;;;9.15;5.65;;;;;;;22.66;54.22;102061.41;4997651;28;20081;-37
2023/10/02 01:45:08;;;;;;;11.48;6.03;;;;;;;22.66;54.10;102063.25;4996938;28;20046;-37
2023/10/02 01:47:41;;;;;;;10.50;5.80;;;;;;;22.64;54.01;102059.88;5000840;28;20058;-37
2023/10/02 01:50:09;;;;;;;11.25;6.07;;;;;;;22.64;53.98;102059.88;4997531;28;20550;-37
2023/10/02 01:52:37;;;;;;;11.60;5.47;;;;;;;22.64;54.10;102065.28;4997718;28;20090;-37
2023/10/02 01:55:29;;;;;;;12.32;6.78;;;;;;;22.62;53.83;102062.72;4995307;28;20061;-37
2023/10/02 01:57:56;;;;;;;12.07;6.35;;;;;;;22.62;54.20;102064.56;4996284;28;20111;-37
2023/10/02 02:00:24;;;;;;;7.78;4.82;;;;;;;22.62;54.04;102056.47;4998930;28;20108;-37
2023/10/02 02:03:14;;;;;;;9.35;5.40;;;;;;;22.61;53.86;102057.47;4997728;28;20054;-37
2023/10/02 02:05:37;;;;;;;11.93;6.05;;;;;;;22.60;54.04;102053.94;4997437;28;20500;-37
2023/10/02 02:08:21;;;;;;;10.82;5.68;;;;;;;22.60;53.92;102058.50;4996998;28;20046;-37
2023/10/02 02:11:14;;;;;;;9.75;5.05;;;;;;;22.58;54.17;102050.53;5000537;28;20101;-37
2023/10/02 02:13:46;;;;;;;10.90;5.53;;;;;;;22.58;53.95;102064.03;5001098;28;20060;-37
2023/10/02 02:16:16;;;;;;;11.80;6.40;;;;;;;22.57;54.27;102056.09;5000890;28;20562;-37
2023/10/02 02:18:45;;;;;;;11.50;6.28;;;;;;;22.56;54.13;102054.41;5003526;28;20050;-37
2023/10/02 02:21:16;;;;;;;11.45;5.93;;;;;;;22.55;54.04;102056.25;5002260;28;20100;-37
2023/10/02 02:23:45;;;;;;;10.85;5.72;;;;;;;22.55;54.30;102050.84;5003564;28;20120;-37
2023/10/02 02:26:22;;;;;;;10.27;5.32;;;;;;;22.54;54.10;102051.84;5002544;28;20053;-37
2023/10/02 02:28:51;;;;;;;9.57;5.55;;;;;;;22.54;54.04;102051.84;5001866;28;20046;-37
2023/10/02 02:31:31;;;;;;;10.73;6.07;;;;;;;22.53;53.91;102050.16;5000966;28;20159;-36
2023/10/02 02:34:01;;;;;;;11.80;5.80;;;;;;;22.53;54.32;102044.75;5005316;28;20050;-36
2023/10/02 02:36:35;;;;;;;11.18;5.53;;;;;;;22.52;54.42;102040.34;5001711;28;20056;-36
2023/10/02 02:39:16;;;;;;;9.57;5.07;;;;;;;22.51;54.00;102038.63;4999558;28;20399;-36
2023/10/02 02:42:08;;;;;;;9.88;5.57;;;;;;;22.50;54.26;102041.50;5005969;28;20050;-37
2023/10/02 02:44:40;;;;;;;11.70;5.93;;;;;;;22.51;53.90;102043.19;5005527;28;20064;-36
2023/10/02 02:47:08;;;;;;;10.68;5.78;;;;;;;22.50;54.18;102038.78;5003697;28;20466;-36
2023/10/02 02:49:50;;;;;;;9.63;5.72;;;;;;;22.50;54.43;102044.19;5005195;28;20077;-36
2023/10/02 02:52:24;;;;;;;10.13;5.82;;;;;;;22.48;53.92;102047.06;5001876;28;20322;-36
2023/10/02 02:54:59;;;;;;;10.90;5.25;;;;;;;22.48;54.34;102044.34;5004461;28;20046;-36
2023/10/02 02:57:27;;;;;;;9.75;4.90;;;;;;;22.48;54.28;102046.22;4999459;28;20058;-36
2023/10/02 03:02:52;;;;;;;10.30;5.53;;;;;;;22.47;54.21;102042.63;5005528;28;20058;-36
2023/10/02 03:05:22;;;;;;;10.32;5.18;;;;;;;22.46;54.43;102034.69;5003587;28;20438;-36
2023/10/02 03:07:54;;;;;;;10.52;5.22;;;;;;;22.46;54.53;102027.44;5002217;28;20054;-36
2023/10/02 03:10:23;;;;;;;9.73;5.30;;;;;;;22.46;54.31;102037.41;5003818;28;20049;-36
2023/10/02 03:12:51;;;;;;;9.48;4.93;;;;;;;22.45;54.54;102041.97;5002563;28;20046;-36
2023/10/02 03:15:20;;;;;;;8.55;4.80;;;;;;;22.45;54.47;102036.56;4997657;28;20058;-36
2023/10/02 03:17:49;;;;;;;9.50;5.43;;;;;;;22.44;54.37;102044.81;5003405;28;20046;-36
2023/10/02 03:20:25;;;;;;;10.45;5.60;;;;;;;22.43;54.38;102041.25;5000890;28;20109;-37
2023/10/02 03:22:54;;;;;;;9.23;5.03;;;;;;;22.43;54.50;102046.66;4998753;28;20042;-36
2023/10/02 03:25:45;;;;;;;11.25;5.32;;;;;;;22.42;54.42;102044.97;5004392;28;20064;-36
2023/10/02 03:28:27;;;;;;;9.82;5.25;;;;;;;22.42;54.11;102048.50;5000152;28;20070;-36
2023/10/02 03:30:55;;;;;;;10.80;5.35;;;;;;;22.43;54.56;102041.25;5002583;28;20038;-36
2023/10/02 03:33:22;;;;;;;11.40;6.10;;;;;;;22.40;54.51;102044.28;4997791;28;20054;-36
2023/10/02 03:35:58;;;;;;;8.95;5.13;;;;;;;22.41;54.36;102048.66;5001743;28;20057;-36
2023/10/02 03:38:26;;;;;;;10.65;5.53;;;;;;;22.40;54.45;102044.28;5000841;28;20042;-36
2023/10/02 03:40:54;;;;;;;11.05;5.18;;;;;;;22.39;54.25;102035.31;5000785;28;20050;-36
2023/10/02 03:43:34;;;;;;;10.85;5.43;;;;;;;22.38;54.52;102035.47;5001698;28;20132;-36
2023/10/02 03:46:13;;;;;;;9.25;5.88;;;;;;;22.39;54.38;102039.84;5001159;28;20054;-36
2023/10/02 03:48:41;;;;;;;9.10;5.40;;;;;;;22.38;54.57;102040.88;5003615;28;20046;-36
2023/10/02 03:51:07;;;;;;;12.65;6.43;;;;;;;22.38;54.49;102039.00;5000105;28;20898;-36
2023/10/02 03:53:35;;;;;;;9.90;5.60;;;;;;;22.36;54.37;102038.34;5001100;28;20400;-36
2023/10/02 03:58:51;;;;;;;11.05;5.88;;;;;;;22.35;54.50;102041.16;5000354;28;20097;-36
2023/10/02 04:01:31;;;;;;;11.77;5.40;;;;;;;22.34;54.60;102037.63;5003145;28;20069;-36
2023/10/02 04:04:19;;;;;;;10.20;5.30;;;;;;;22.34;54.47;102040.31;5001514;28;20331;-36
2023/10/02 04:06:47;;;;;;;11.25;5.57;;;;;;;22.33;54.40;102044.03;5003543;28;20052;-36
2023/10/02 04:11:45;;;;;;;10.23;5.25;;;;;;;22.33;54.69;102038.63;5005654;28;20096;-36
2023/10/02 04:14:18;;;;;;;11.18;5.93;;;;;;;22.32;54.61;102033.41;5004167;28;20058;-36
2023/10/02 04:16:48;;;;;;;11.15;6.22;;;;;;;22.32;54.32;102030.69;5000218;28;20108;-36
2023/10/02 04:19:16;;;;;;;10.77;5.85;;;;;;;22.31;54.59;102029.84;5003445;28;20042;-36
2023/10/02 04:21:47;;;;;;;12.10;5.93;;;;;;;22.31;54.52;102015.47;5004551;28;20104;-36
2023/10/02 04:24:16;;;;;;;11.23;5.55;;;;;;;22.31;54.40;102015.47;5001210;28;20052;-36
2023/10/02 04:26:44;;;;;;;10.85;5.65;;;;;;;22.30;54.44;102013.78;4998688;28;20050;-36
2023/10/02 04:29:28;;;;;;;11.43;5.85;;;;;;;22.29;54.66;102007.53;5002532;28;20111;-36
2023/10/02 04:32:11;;;;;;;10.77;5.70;;;;;;;22.29;54.75;102001.28;5003423;28;20042;-36
2023/10/02 04:34:46;;;;;;;11.25;5.95;;;;;;;22.29;54.34;101991.31;5006602;28;20050;-36
2023/10/02 04:37:20;;;;;;;11.20;5.60;;;;;;;22.28;54.41;101991.47;5002863;28;20047;-36
2023/10/02 04:40:13;;;;;;;11.45;5.75;;;;;;;22.28;54.53;101999.59;5000348;28;20405;-36
2023/10/02 04:42:58;;;;;;;10.18;5.57;;;;;;;22.27;54.47;102008.66;4998926;28;20115;-36
2023/10/02 04:45:34;;;;;;;11.80;5.63;;;;;;;22.26;54.63;102010.53;5008019;28;20092;-36
2023/10/02 04:48:01;;;;;;;11.13;5.80;;;;;;;22.26;54.57;102004.28;5005945;28;20045;-36
2023/10/02 04:53:00;;;;;;;12.43;5.35;;;;;;;22.23;54.86;101996.47;4999524;28;20137;-36
2023/10/02 04:55:32;;;;;;;11.38;5.50;;;;;;;22.23;54.51;101985.66;5005192;28;20050;-36
2023/10/02 04:58:04;;;;;;;10.45;5.30;;;;;;;22.23;54.66;101986.56;5002603;28;20050;-36
2023/10/02 05:00:34;;;;;;;12.43;6.05;;;;;;;22.23;54.53;101991.06;5002274;28;20050;-36
2023/10/02 05:03:49;;;;;;;12.50;6.10;;;;;;;22.22;54.63;102001.03;5001101;28;20096;-36
2023/10/02 05:05:49;;;;;;;14.00;6.93;;;;;;;22.23;54.76;101997.34;4995624;28;20061;-36
2023/10/02 05:08:19;;;;;;;11.02;5.78;;;;;;;22.22;54.74;102008.28;5004619;28;20052;-36
2023/10/02 05:10:56;;;;;;;10.75;5.93;;;;;;;22.22;54.58;102002.88;5001586;28;20114;-36
2023/10/02 05:16:12;;;;;;;10.48;5.80;;;;;;;22.22;54.26;102017.22;5000775;28;20126;-36
2023/10/02 05:18:44;;;;;;;11.18;6.20;;;;;;;22.22;54.41;102019.94;5009262;28;20058;-36
2023/10/02 05:21:16;;;;;;;13.68;6.55;;;;;;;22.23;54.91;102023.47;5001241;28;20053;-36
2023/10/02 05:24:00;;;;;;;13.02;6.30;;;;;;;22.22;55.31;102027.19;4997745;28;20133;-36
2023/10/02 05:26:34;;;;;;;14.80;7.05;;;;;;;22.24;55.31;102015.25;4999506;28;20130;-36
2023/10/02 05:29:01;;;;;;;;;;;;;;;22.21;55.78;102018.25;5000699;28;20082;-36
2023/10/02 05:31:30;;;;;;;26.92;8.98;;;;;;;22.24;55.41;102026.06;4999727;28;19921;-36
2023/10/02 05:33:57;;;;;;;15.38;7.65;;;;;;;22.24;55.36;102019.81;5007673;28;20458;-36
2023/10/02 05:36:24;;;;;;;18.27;7.55;;;;;;;22.23;55.70;102026.19;5003645;28;20123;-36
2023/10/02 05:39:28;;;;;;;18.02;6.80;;;;;;;22.22;55.58;102021.78;5002942;28;20046;-37
2023/10/02 05:41:56;;;;;;;22.42;7.15;;;;;;;22.21;55.60;102020.94;5004200;28;20062;-36
2023/10/02 05:44:25;;;;;;;16.85;7.30;;;;;;;22.21;55.80;102020.94;4998405;28;20121;-37
2023/10/02 05:47:07;;;;;;;17.20;7.00;;;;;;;22.21;55.45;102020.94;5001895;28;20046;-37
2023/10/02 05:49:36;;;;;;;17.67;7.40;;;;;;;22.22;55.50;102019.09;5000384;28;20125;-37
2023/10/02 05:52:07;;;;;;;15.48;7.20;;;;;;;22.21;55.59;102014.69;4997831;28;20373;-37
2023/10/02 05:54:47;;;;;;;17.48;7.45;;;;;;;22.21;55.95;102026.34;4997201;28;20081;-37
2023/10/02 05:57:14;;;;;;;16.45;6.55;;;;;;;22.21;55.52;102022.81;5000498;28;20054;-37
2023/10/02 05:59:45;;;;;;;17.95;7.90;;;;;;;22.21;55.68;102025.50;5008970;28;20050;-37
2023/10/02 06:02:19;;;;;;;16.70;6.97;;;;;;;22.20;55.79;102027.34;4998087;28;20148;-37
2023/10/02 06:04:48;;;;;;;21.17;8.10;;;;;;;22.21;55.50;102028.19;4998875;28;20464;-37
2023/10/02 06:07:40;;;;;;;20.27;7.65;;;;;;;22.20;55.68;102029.22;5004069;28;21112;-37
2023/10/02 06:10:08;;;;;;;17.02;8.13;;;;;;;22.22;55.77;102033.44;5001403;28;20075;-37
2023/10/02 06:12:42;;;;;;;17.42;7.75;;;;;;;22.19;55.78;102033.75;5002348;28;20068;-37
2023/10/02 06:15:43;;;;;;;17.40;7.43;;;;;;;22.21;55.60;102039.00;5003285;28;20054;-37
2023/10/02 06:17:58;;;;;;;18.80;8.25;;;;;;;22.21;55.75;102042.56;5000166;28;20054;-37
2023/10/02 06:20:25;;;;;;;17.35;6.85;;;;;;;22.20;55.53;102046.25;4997738;28;20058;-37
2023/10/02 06:23:05;;;;;;;19.02;8.23;;;;;;;22.22;55.80;102054.19;5005123;28;20108;-37
2023/10/02 06:25:32;;;;;;;16.20;7.32;;;;;;;22.21;55.58;102047.09;5001820;28;20068;-37
2023/10/02 06:28:19;;;;;;;15.32;7.00;;;;;;;22.21;55.57;102050.66;4998833;28;20050;-37
2023/10/02 06:30:48;;;;;;;17.05;6.78;;;;;;;22.21;55.56;102056.06;4994596;28;20421;-37
2023/10/02 06:33:17;;;;;;;14.35;7.20;;;;;;;22.21;55.59;102050.66;4997726;28;20390;-37
2023/10/02 06:35:56;;;;;;;17.77;7.75;;;;;;;22.21;55.86;102052.50;5002755;28;20050;-37
2023/10/02 06:38:23;;;;;;;13.95;7.07;;;;;;;22.22;55.45;102062.31;4999287;28;20042;-37
2023/10/02 06:40:56;;;;;;;14.70;6.40;;;;;;;22.22;55.68;102060.44;4997715;28;20074;-37
2023/10/02 06:43:31;;;;;;;17.55;6.95;;;;;;;22.23;55.84;102066.69;4994593;28;20073;-37
2023/10/02 06:46:06;;;;;;;15.27;6.95;;;;;;;22.23;55.64;102077.50;5002956;28;20065;-37
2023/10/02 06:48:39;;;;;;;15.95;7.50;;;;;;;22.23;55.64;102059.47;5003602;28;20057;-37
2023/10/02 06:51:07;;;;;;;14.23;6.87;;;;;;;22.24;55.62;102060.31;4999254;28;20097;-37
2023/10/02 06:53:34;;;;;;;17.02;7.57;;;;;;;22.23;55.58;102062.16;4998773;28;20038;-37
2023/10/02 06:56:10;;;;;;;14.75;7.28;;;;;;;22.24;55.57;102061.16;5001184;28;20128;-37
2023/10/02 06:58:52;;;;;;;14.77;6.60;;;;;;;22.24;55.51;102063.88;4994893;28;20069;-37
2023/10/02 07:01:19;;;;;;;16.88;7.80;;;;;;;22.24;55.69;102069.25;5002445;28;20506;-37
2023/10/02 07:03:55;;;;;;;15.05;7.32;;;;;;;22.25;55.72;102084.47;5000000;28;20054;-36
2023/10/02 07:06:28;;;;;;;13.95;7.45;;;;;;;22.26;55.87;102077.19;5000382;28;20050;-37
2023/10/02 07:09:28;;;;;;;11.50;6.45;;;;;;;22.26;55.62;102078.03;5001044;28;20050;-37
2023/10/02 07:11:49;;;;;;;13.23;6.65;;;;;;;22.27;55.51;102068.97;4999299;28;20145;-37
2023/10/02 07:14:15;;;;;;;15.27;7.68;;;;;;;22.27;55.57;102068.97;5003831;28;20136;-37
2023/10/02 07:16:42;;;;;;;17.05;7.03;;;;;;;22.28;55.67;102064.41;5003745;28;20085;-37
2023/10/02 07:19:10;;;;;;;18.02;7.07;;;;;;;22.29;55.55;102055.28;5007126;28;20415;-38
2023/10/02 07:21:40;;;;;;;15.98;7.28;;;;;;;22.29;55.69;102066.94;5000972;28;20041;-37
2023/10/02 07:24:25;;;;;;;14.43;7.03;;;;;;;22.29;55.74;102075.06;5002820;28;20129;-37
2023/10/02 07:26:52;;;;;;;14.57;7.07;;;;;;;22.30;55.63;102081.31;5002115;28;20046;-37
2023/10/02 07:29:19;;;;;;;13.30;6.60;;;;;;;22.31;55.34;102083.88;5003965;28;20050;-37
2023/10/02 07:31:47;;;;;;;14.77;6.55;;;;;;;22.32;55.61;102084.72;5002710;28;20246;-37
2023/10/02 07:34:15;;;;;;;13.43;6.60;;;;;;;22.33;55.29;102083.69;5001878;28;20073;-37
2023/10/02 07:36:45;;;;;;;13.50;6.65;;;;;;;22.33;55.58;102084.56;5000080;28;20077;-37
2023/10/02 07:42:01;;;;;;;17.60;7.20;;;;;;;22.36;55.32;102072.59;5003143;28;20050;-37
2023/10/02 07:44:36;;;;;;;15.60;7.20;;;;;;;22.36;55.62;102067.19;4999124;28;20081;-37
2023/10/02 07:47:10;;;;;;;13.02;6.13;;;;;;;22.37;55.55;102071.59;4999474;28;20100;-37
2023/10/02 07:49:40;;;;;;;;;;;;;;;22.36;55.42;102072.59;5002295;28;20108;-37
2023/10/02 07:52:08;;;;;;;12.48;6.55;;;;;;;22.40;55.11;102079.41;5006170;28;19932;-37
2023/10/02 07:54:44;;;;;;;16.98;7.50;;;;;;;22.40;55.22;102092.91;5006346;28;20046;-36
2023/10/02 07:57:18;;;;;;;15.27;7.22;;;;;;;22.38;55.66;102094.91;5001782;28;20141;-37
2023/10/02 07:59:45;;;;;;;13.27;7.13;;;;;;;22.39;55.27;102110.09;4997100;28;20050;-37
2023/10/02 08:02:23;;;;;;;14.52;7.25;;;;;;;22.38;55.62;102098.44;5004857;28;20054;-37
2023/10/02 08:04:51;;;;;;;16.10;7.70;;;;;;;22.38;55.16;102098.44;4995436;28;20061;-37
2023/10/02 08:07:19;;;;;;;13.77;7.18;;;;;;;22.39;55.27;102099.28;4996703;28;20430;-36
2023/10/02 08:10:06;;;;;;;15.75;7.10;;;;;;;22.39;55.39;102097.47;4999211;28;20052;-36
2023/10/02 08:12:34;;;;;;;14.88;7.15;;;;;;;22.41;54.92;102105.41;4995801;28;20046;-36
2023/10/02 08:15:26;;;;;;;14.18;6.82;;;;;;;22.41;55.55;102100.84;4997946;28;20081;-37
2023/10/02 08:20:24;;;;;;;14.68;7.25;;;;;;;22.42;55.20;102097.13;4999527;28;20105;-37
2023/10/02 08:22:52;;;;;;;14.27;7.35;;;;;;;22.44;55.37;102101.56;5002278;28;20076;-37
2023/10/02 08:25:23;;;;;;;15.48;7.15;;;;;;;22.45;55.28;102097.84;5004785;28;20125;-37
2023/10/02 08:27:55;;;;;;;13.77;7.32;;;;;;;22.45;55.09;102104.09;4996705;28;20058;-37
2023/10/02 08:30:36;;;;;;;13.88;6.50;;;;;;;22.46;55.58;102118.44;4997754;28;20469;-37
2023/10/02 08:33:06;;;;;;;16.05;6.40;;;;;;;22.45;55.48;102117.59;4994335;28;20326;-37
2023/10/02 08:35:47;;;;;;;17.48;7.50;;;;;;;22.46;55.34;102116.59;4997184;28;20123;-37
2023/10/02 08:38:24;;;;;;;11.57;6.45;;;;;;;22.47;55.47;102102.06;4994447;28;20043;-37
2023/10/02 08:40:59;;;;;;;14.73;6.97;;;;;;;22.48;55.64;102101.09;4996557;28;21162;-37
2023/10/02 08:43:32;;;;;;;14.73;7.63;;;;;;;22.48;55.34;102098.41;4992763;28;20057;-37
2023/10/02 08:45:59;;;;;;;15.68;7.45;;;;;;;22.51;55.51;102102.63;4993398;28;20050;-37
2023/10/02 08:48:26;;;;;;;11.32;6.53;;;;;;;22.51;54.77;102095.38;4996036;28;20048;-37
2023/10/02 08:50:57;;;;;;;13.57;6.35;;;;;;;22.52;55.40;102093.53;4992507;28;20077;-37
2023/10/02 08:53:24;;;;;;;15.30;7.50;;;;;;;22.53;55.20;102092.53;4990958;28;20057;-36
2023/10/02 08:56:04;;;;;;;11.90;6.10;;;;;;;22.54;55.20;102096.91;4996036;28;20640;-36
2023/10/02 08:58:31;;;;;;;14.85;7.47;;;;;;;22.56;55.47;102089.53;4992424;28;20047;-36
2023/10/02 09:01:17;;;;;;;14.27;6.85;;;;;;;22.58;55.41;102077.53;4992123;28;20057;-36
2023/10/02 09:04:11;;;;;;;13.00;6.82;;;;;;;22.60;55.16;102085.50;4997813;28;20054;-36
2023/10/02 09:06:41;;;;;;;13.73;7.18;;;;;;;22.63;55.34;102094.16;4996235;28;20366;-36
2023/10/02 09:09:21;;;;;;;17.60;7.22;;;;;;;22.65;55.49;102097.56;5000168;28;20054;-36
2023/10/02 09:11:57;;;;;;;14.27;7.28;;;;;;;22.66;54.96;102099.25;4999376;28;20061;-36
2023/10/02 09:19:49;;;;;;;18.50;8.38;;;;;;;22.72;55.16;102088.84;5001294;28;20744;-36
2023/10/02 09:22:17;;;;;;;14.80;7.38;;;;;;;22.74;55.54;102087.66;5001340;28;20049;-36
2023/10/02 09:24:58;;;;;;;16.08;8.70;;;;;;;22.75;55.62;102078.53;4999741;28;20057;-36
2023/10/02 09:27:27;;;;;;;18.83;8.80;;;;;;;22.78;55.39;102086.34;5003717;28;20046;-36
2023/10/02 09:32:49;;;;;;;16.10;8.50;;;;;;;22.82;55.64;102086.88;5007118;28;20464;-36
2023/10/02 09:35:23;;;;;;;17.35;8.95;;;;;;;22.83;55.30;102084.03;5001756;28;20053;-36
2023/10/02 09:38:16;;;;;;;17.65;9.02;;;;;;;22.87;55.52;102087.25;4998531;28;20506;-36
2023/10/02 09:40:54;;;;;;;14.50;7.68;;;;;;;22.89;55.86;102080.72;4999206;28;20096;-37
2023/10/02 09:43:24;;;;;;;23.52;9.05;;;;;;;22.92;55.58;102073.34;4999259;28;20053;-36
2023/10/02 09:45:53;;;;;;;16.73;8.50;;;;;;;22.94;55.80;102080.28;4999133;28;20397;-36
2023/10/02 09:51:37;;;;;;;14.27;7.80;;;;;;;22.99;55.71;102064.41;5001814;28;20195;-36
2023/10/02 09:54:28;;;;;;;15.70;7.53;;;;;;;23.03;55.85;102059.56;4999916;28;20054;-37
2023/10/02 09:57:11;;;;;;;22.00;9.93;;;;;;;23.06;56.15;102059.25;5000755;28;20057;-37
2023/10/02 09:59:46;;;;;;;18.85;9.50;;;;;;;23.07;56.04;102055.53;4996322;28;20169;-36
2023/10/02 10:05:01;;;;;;;18.45;9.90;;;;;;;23.07;56.13;102044.72;5003693;28;20057;-36
2023/10/02 10:07:52;;;;;;;18.42;9.50;;;;;;;23.07;56.10;102034.72;5002357;28;20070;-37
2023/10/02 10:10:49;;;;;;;19.40;9.57;;;;;;;23.09;56.03;102042.72;4996751;28;20050;-36
2023/10/02 10:13:32;;;;;;;16.65;8.88;;;;;;;23.09;56.44;102042.72;5003292;28;20041;-37
2023/10/02 10:16:20;;;;;;;20.50;9.95;;;;;;;23.08;55.88;102036.47;5001020;28;20060;-37
2023/10/02 10:24:56;;;;;;;15.52;8.27;;;;;;;23.13;56.09;102042.22;5005493;28;20054;-37
2023/10/02 10:27:39;;;;;;;17.65;8.73;;;;;;;23.14;55.76;102034.97;5003024;28;20052;-37
2023/10/02 10:30:28;;;;;;;18.15;9.40;;;;;;;23.15;56.28;102037.50;5002567;28;20050;-37
2023/10/02 10:33:01;;;;;;;18.02;9.85;;;;;;;23.17;56.30;102033.81;4998374;28;20165;-37
2023/10/02 10:35:33;;;;;;;17.85;9.13;;;;;;;23.17;56.05;102033.81;5004227;28;20050;-37
2023/10/02 10:40:55;;;;;;;;;;;;;;;23.19;55.75;102035.31;5004190;28;20696;-37
2023/10/02 10:43:26;;;;;;;17.63;8.18;;;;;;;23.23;56.17;102033.16;5003963;28;19922;-37
2023/10/02 10:45:54;;;;;;;18.10;9.50;;;;;;;23.23;55.98;102033.16;5008325;28;20042;-38
2023/10/02 10:48:22;;;;;;;16.63;8.25;;;;;;;23.23;56.00;102031.28;5006740;28;20434;-38
2023/10/02 10:50:59;;;;;;;18.80;8.45;;;;;;;23.22;56.38;102035.00;5000528;28;20069;-37
2023/10/02 10:53:27;;;;;;;17.20;8.68;;;;;;;23.25;55.63;102037.41;5001428;28;20073;-38
2023/10/02 10:56:17;;;;;;;17.23;8.45;;;;;;;23.25;55.88;102029.28;5007937;28;20061;-38
2023/10/02 10:58:45;;;;;;;19.17;9.35;;;;;;;23.28;55.82;102028.13;5006848;28;20456;-38
2023/10/02 11:01:14;;;;;;;15.40;7.82;;;;;;;23.29;56.05;102032.53;5005728;28;20050;-38
2023/10/02 11:03:41;;;;;;;18.17;8.38;;;;;;;23.30;55.88;102031.50;5006478;28;20042;-36
2023/10/02 11:06:15;;;;;;;15.50;8.13;;;;;;;23.32;56.30;102034.94;4999157;28;20046;-37
2023/10/02 11:08:44;;;;;;;;;;;;;;;23.31;56.11;102042.16;5001779;28;20132;-37
2023/10/02 11:11:48;;;;;;;16.38;8.45;;;;;;;23.37;55.46;102032.56;5006057;28;19921;-37
2023/10/02 11:14:02;;;;;;;17.50;8.75;;;;;;;23.38;56.04;102042.38;5005293;28;20038;-37
2023/10/02 11:16:34;;;;;;;14.82;7.35;;;;;;;23.37;56.03;102024.47;5001537;28;20103;-37
2023/10/02 11:19:21;;;;;;;17.73;8.37;;;;;;;23.38;55.82;102036.97;5002208;28;20129;-37
2023/10/02 11:24:53;;;;;;;17.40;7.97;;;;;;;23.39;55.51;102025.13;5002085;28;20064;-36
2023/10/02 11:27:21;;;;;;;14.52;7.38;;;;;;;23.40;56.16;102018.75;5000382;28;20370;-36
2023/10/02 11:30:02;;;;;;;12.60;6.85;;;;;;;23.41;56.00;102020.44;5002223;28;20057;-37
2023/10/02 11:32:53;;;;;;;14.50;7.05;;;;;;;23.40;55.51;102016.03;5002207;28;20046;-37
2023/10/02 11:35:21;;;;;;;14.23;7.45;;;;;;;23.42;55.65;102008.59;5000653;28;20401;-37
2023/10/02 11:37:49;;;;;;;15.43;6.75;;;;;;;23.42;55.78;102008.59;5003412;28;20057;-37
2023/10/02 11:40:16;;;;;;;13.68;7.85;;;;;;;23.44;55.79;102003.88;5006028;28;20057;-37
2023/10/02 11:42:43;;;;;;;13.48;6.70;;;;;;;23.43;55.83;102012.97;5007677;28;20061;-36
2023/10/02 11:45:11;;;;;;;12.95;7.45;;;;;;;23.44;56.03;102014.69;5008848;28;20085;-37
2023/10/02 11:47:38;;;;;;;13.80;7.03;;;;;;;23.45;55.83;102010.97;5000298;28;20145;-37
2023/10/02 11:50:05;;;;;;;14.30;7.00;;;;;;;23.45;55.60;102005.56;5002613;28;20082;-37
2023/10/02 11:52:32;;;;;;;16.08;7.90;;;;;;;23.46;55.82;102007.25;5004935;28;20108;-37
2023/10/02 11:54:59;;;;;;;15.52;7.10;;;;;;;23.48;55.86;101998.97;5002275;28;20046;-37
2023/10/02 11:57:25;;;;;;;15.90;6.65;;;;;;;23.49;55.59;101993.41;5004318;28;20049;-37
2023/10/02 11:59:52;;;;;;;12.80;6.30;;;;;;;23.50;55.69;101986.97;5005997;28;20053;-38
2023/10/02 12:02:19;;;;;;;13.15;6.82;;;;;;;23.52;56.18;101986.84;5006080;28;20047;-37
2023/10/02 12:04:46;;;;;;;15.95;7.88;;;;;;;23.53;55.52;101988.53;5001954;28;20073;-37
2023/10/02 12:07:16;;;;;;;16.95;7.28;;;;;;;23.53;55.63;101978.53;5015155;28;20312;-37
2023/10/02 12:09:47;;;;;;;17.42;7.22;;;;;;;23.55;55.79;101981.06;5001858;28;20328;-37
2023/10/02 12:12:14;;;;;;;16.13;7.57;;;;;;;23.57;55.65;101979.06;5008206;28;20278;-37
2023/10/02 12:14:42;;;;;;;15.45;7.65;;;;;;;23.58;55.67;101976.19;5002505;28;20787;-37
2023/10/02 12:17:11;;;;;;;14.50;7.68;;;;;;;23.59;56.20;101980.59;5004375;28;20342;-37
2023/10/02 12:19:40;;;;;;;14.77;7.30;;;;;;;23.60;55.87;101973.34;4998982;28;20133;-37
2023/10/02 12:22:07;;;;;;;15.23;7.15;;;;;;;23.62;55.41;101972.16;5014085;28;20046;-37
2023/10/02 12:24:36;;;;;;;15.45;8.65;;;;;;;23.62;55.53;101977.56;5001034;28;20045;-37
2023/10/02 12:27:04;;;;;;;16.20;8.38;;;;;;;23.65;55.52;101973.69;5001877;28;20101;-37
2023/10/02 12:29:31;;;;;;;17.10;7.90;;;;;;;23.67;55.64;101963.56;4996860;28;20468;-37
2023/10/02 12:32:01;;;;;;;14.98;6.75;;;;;;;23.67;55.90;101963.56;5001198;28;20077;-38
2023/10/02 12:34:28;;;;;;;17.08;7.70;;;;;;;23.70;55.65;101956.97;5005985;28;20054;-38
2023/10/02 12:36:55;;;;;;;17.55;7.88;;;;;;;23.70;55.60;101949.69;5006250;28;20061;-37